sensor_id;sensor_type;location;lat;lon;timestamp;pressure;altitude;pressure_sealevel;temperature;humidity
56241;BME280;42155;53.096;23.226;2024-03-17T00:00:22;99561.53;;;9.77;89.42
56241;BME280;42155;53.096;23.226;2024-03-17T00:02:22;99550.72;;;9.68;89.76
56241;BME280;42155;53.096;23.226;2024-03-17T00:04:22;99565.16;;;9.76;89.74
56241;BME280;42155;53.096;23.226;2024-03-17T00:06:23;99559.00;;;9.75;89.40
56241;BME280;42155;53.096;23.226;2024-03-17T00:08:23;99540.25;;;9.67;89.51
56241;BME280;42155;53.096;23.226;2024-03-17T00:10:24;99558.16;;;9.75;89.72
56241;BME280;42155;53.096;23.226;2024-03-17T00:12:24;99547.81;;;9.72;89.40
56241;BME280;42155;53.096;23.226;2024-03-17T00:14:25;99557.00;;;9.67;89.54
56241;BME280;42155;53.096;23.226;2024-03-17T00:16:26;99556.72;;;9.70;89.93
56241;BME280;42155;53.096;23.226;2024-03-17T00:18:26;99560.72;;;9.65;89.80
56241;BME280;42155;53.096;23.226;2024-03-17T00:20:26;99561.69;;;9.64;89.30
56241;BME280;42155;53.096;23.226;2024-03-17T00:22:27;99557.50;;;9.61;89.34
56241;BME280;42155;53.096;23.226;2024-03-17T00:24:28;99558.47;;;9.60;89.18
56241;BME280;42155;53.096;23.226;2024-03-17T00:26:28;99569.19;;;9.59;89.53
56241;BME280;42155;53.096;23.226;2024-03-17T00:28:29;99562.38;;;9.45;89.23
56241;BME280;42155;53.096;23.226;2024-03-17T00:30:29;99525.75;;;9.18;89.29
56241;BME280;42155;53.096;23.226;2024-03-17T00:32:29;99551.09;;;9.32;89.00
56241;BME280;42155;53.096;23.226;2024-03-17T00:34:30;99565.69;;;9.26;88.69
56241;BME280;42155;53.096;23.226;2024-03-17T00:36:30;99597.00;;;9.21;89.00
56241;BME280;42155;53.096;23.226;2024-03-17T00:38:30;99593.66;;;9.08;89.02
56241;BME280;42155;53.096;23.226;2024-03-17T00:40:31;99598.56;;;9.01;88.88
56241;BME280;42155;53.096;23.226;2024-03-17T00:42:32;99602.94;;;8.91;88.82
56241;BME280;42155;53.096;23.226;2024-03-17T00:44:32;99604.16;;;8.76;88.33
56241;BME280;42155;53.096;23.226;2024-03-17T00:46:32;99616.41;;;8.65;88.11
56241;BME280;42155;53.096;23.226;2024-03-17T00:48:33;99615.00;;;8.26;86.87
56241;BME280;42155;53.096;23.226;2024-03-17T00:50:33;99604.06;;;7.84;87.12
56241;BME280;42155;53.096;23.226;2024-03-17T00:52:34;99650.31;;;7.90;87.26
56241;BME280;42155;53.096;23.226;2024-03-17T00:54:35;99631.47;;;7.59;86.60
56241;BME280;42155;53.096;23.226;2024-03-17T00:56:35;99660.22;;;7.51;86.65
56241;BME280;42155;53.096;23.226;2024-03-17T00:58:35;99643.72;;;7.36;85.94
56241;BME280;42155;53.096;23.226;2024-03-17T01:00:36;99658.75;;;7.23;85.97
56241;BME280;42155;53.096;23.226;2024-03-17T01:02:36;99661.84;;;7.04;84.85
56241;BME280;42155;53.096;23.226;2024-03-17T01:04:36;99658.59;;;6.88;85.26
56241;BME280;42155;53.096;23.226;2024-03-17T01:06:37;99644.78;;;6.72;85.07
56241;BME280;42155;53.096;23.226;2024-03-17T01:08:37;99659.84;;;6.70;85.03
56241;BME280;42155;53.096;23.226;2024-03-17T01:10:41;99646.50;;;6.47;84.29
56241;BME280;42155;53.096;23.226;2024-03-17T01:12:41;99582.56;;;6.05;84.36
56241;BME280;42155;53.096;23.226;2024-03-17T01:14:42;99666.72;;;6.47;83.83
56241;BME280;42155;53.096;23.226;2024-03-17T01:16:42;99666.72;;;6.34;84.28
56241;BME280;42155;53.096;23.226;2024-03-17T01:18:42;99646.03;;;6.28;83.82
56241;BME280;42155;53.096;23.226;2024-03-17T01:20:43;99652.59;;;6.35;83.80
56241;BME280;42155;53.096;23.226;2024-03-17T01:22:44;99652.06;;;6.30;83.42
56241;BME280;42155;53.096;23.226;2024-03-17T01:24:44;99659.13;;;6.29;82.96
56241;BME280;42155;53.096;23.226;2024-03-17T01:26:45;99657.66;;;6.25;83.33
56241;BME280;42155;53.096;23.226;2024-03-17T01:28:45;99648.16;;;6.23;83.40
56241;BME280;42155;53.096;23.226;2024-03-17T01:30:45;99655.09;;;6.24;82.47
56241;BME280;42155;53.096;23.226;2024-03-17T01:32:46;99669.22;;;6.23;82.27
56241;BME280;42155;53.096;23.226;2024-03-17T01:34:46;99626.13;;;5.84;82.15
56241;BME280;42155;53.096;23.226;2024-03-17T01:36:47;99694.09;;;6.19;82.29
56241;BME280;42155;53.096;23.226;2024-03-17T01:38:47;99709.28;;;6.28;82.37
56241;BME280;42155;53.096;23.226;2024-03-17T01:40:47;99702.13;;;6.30;82.34
56241;BME280;42155;53.096;23.226;2024-03-17T01:42:48;99688.44;;;6.25;82.09
56241;BME280;42155;53.096;23.226;2024-03-17T01:44:48;99729.06;;;6.48;81.54
56241;BME280;42155;53.096;23.226;2024-03-17T01:46:50;99716.28;;;6.54;82.25
56241;BME280;42155;53.096;23.226;2024-03-17T01:48:51;99711.84;;;6.55;81.47
56241;BME280;42155;53.096;23.226;2024-03-17T01:50:53;99714.19;;;6.59;82.04
56241;BME280;42155;53.096;23.226;2024-03-17T01:52:57;99710.28;;;6.52;81.77
56241;BME280;42155;53.096;23.226;2024-03-17T01:54:58;99716.81;;;6.59;81.60
56241;BME280;42155;53.096;23.226;2024-03-17T01:56:58;99698.16;;;6.50;81.89
56241;BME280;42155;53.096;23.226;2024-03-17T01:58:59;99717.66;;;6.60;81.65
56241;BME280;42155;53.096;23.226;2024-03-17T02:01:01;99715.66;;;6.63;82.06
56241;BME280;42155;53.096;23.226;2024-03-17T02:03:02;99726.22;;;6.63;81.37
56241;BME280;42155;53.096;23.226;2024-03-17T02:05:03;99700.59;;;6.53;81.80
56241;BME280;42155;53.096;23.226;2024-03-17T02:07:04;99729.81;;;6.62;81.29
56241;BME280;42155;53.096;23.226;2024-03-17T02:09:04;99702.59;;;6.49;81.50
56241;BME280;42155;53.096;23.226;2024-03-17T02:11:04;99721.06;;;6.62;81.93
56241;BME280;42155;53.096;23.226;2024-03-17T02:13:05;99713.22;;;6.60;81.56
56241;BME280;42155;53.096;23.226;2024-03-17T02:15:06;99728.13;;;6.61;81.50
56241;BME280;42155;53.096;23.226;2024-03-17T02:17:06;99711.22;;;6.51;81.31
56241;BME280;42155;53.096;23.226;2024-03-17T02:19:07;99729.06;;;6.60;81.76
56241;BME280;42155;53.096;23.226;2024-03-17T02:21:07;99725.69;;;6.58;81.28
56241;BME280;42155;53.096;23.226;2024-03-17T02:23:08;99698.66;;;6.42;81.39
56241;BME280;42155;53.096;23.226;2024-03-17T02:25:08;99722.41;;;6.55;81.54
56241;BME280;42155;53.096;23.226;2024-03-17T02:27:09;99727.47;;;6.58;81.04
56241;BME280;42155;53.096;23.226;2024-03-17T02:29:09;99727.69;;;6.55;80.95
56241;BME280;42155;53.096;23.226;2024-03-17T02:31:11;99732.88;;;6.56;81.09
56241;BME280;42155;53.096;23.226;2024-03-17T02:33:12;99721.03;;;6.49;81.14
56241;BME280;42155;53.096;23.226;2024-03-17T02:35:12;99710.38;;;6.38;81.32
56241;BME280;42155;53.096;23.226;2024-03-17T02:37:12;99723.47;;;6.52;81.41
56241;BME280;42155;53.096;23.226;2024-03-17T02:39:13;99718.41;;;6.49;80.94
56241;BME280;42155;53.096;23.226;2024-03-17T02:41:13;99720.09;;;6.50;81.52
56241;BME280;42155;53.096;23.226;2024-03-17T02:43:14;99724.31;;;6.53;81.05
56241;BME280;42155;53.096;23.226;2024-03-17T02:45:14;99737.56;;;6.51;80.92
56241;BME280;42155;53.096;23.226;2024-03-17T02:47:14;99737.03;;;6.46;81.36
56241;BME280;42155;53.096;23.226;2024-03-17T02:49:15;99736.97;;;6.48;81.03
56241;BME280;42155;53.096;23.226;2024-03-17T02:51:16;99735.16;;;6.48;81.27
56241;BME280;42155;53.096;23.226;2024-03-17T02:53:18;99724.28;;;6.40;81.29
56241;BME280;42155;53.096;23.226;2024-03-17T02:55:18;99739.50;;;6.49;81.16
56241;BME280;42155;53.096;23.226;2024-03-17T02:57:19;99736.31;;;6.44;81.46
56241;BME280;42155;53.096;23.226;2024-03-17T02:59:19;99738.75;;;6.47;81.27
56241;BME280;42155;53.096;23.226;2024-03-17T03:01:19;99739.69;;;6.46;81.11
56241;BME280;42155;53.096;23.226;2024-03-17T03:03:20;99730.41;;;6.41;81.54
56241;BME280;42155;53.096;23.226;2024-03-17T03:05:20;99720.59;;;6.30;81.44
56241;BME280;42155;53.096;23.226;2024-03-17T03:07:20;99732.91;;;6.42;81.49
56241;BME280;42155;53.096;23.226;2024-03-17T03:09:21;99735.88;;;6.37;81.45
56241;BME280;42155;53.096;23.226;2024-03-17T03:11:21;99719.63;;;6.31;81.38
56241;BME280;42155;53.096;23.226;2024-03-17T03:13:21;99733.22;;;6.37;81.74
56241;BME280;42155;53.096;23.226;2024-03-17T03:15:22;99744.72;;;6.36;81.27
56241;BME280;42155;53.096;23.226;2024-03-17T03:17:22;99749.47;;;6.31;81.32
56241;BME280;42155;53.096;23.226;2024-03-17T03:19:22;99722.00;;;6.08;81.22
56241;BME280;42155;53.096;23.226;2024-03-17T03:21:23;99753.34;;;6.26;81.11
56241;BME280;42155;53.096;23.226;2024-03-17T03:23:24;99753.16;;;6.29;81.37
56241;BME280;42155;53.096;23.226;2024-03-17T03:25:24;99748.19;;;6.24;81.17
56241;BME280;42155;53.096;23.226;2024-03-17T03:27:24;99756.84;;;6.26;80.36
56241;BME280;42155;53.096;23.226;2024-03-17T03:29:25;99754.38;;;6.23;81.00
56241;BME280;42155;53.096;23.226;2024-03-17T03:31:25;99748.69;;;6.17;80.26
56241;BME280;42155;53.096;23.226;2024-03-17T03:33:25;99718.59;;;5.94;80.61
56241;BME280;42155;53.096;23.226;2024-03-17T03:35:28;99761.50;;;6.08;80.23
56241;BME280;42155;53.096;23.226;2024-03-17T03:37:28;99751.38;;;6.02;80.37
56241;BME280;42155;53.096;23.226;2024-03-17T03:39:29;99756.19;;;5.96;80.24
56241;BME280;42155;53.096;23.226;2024-03-17T03:41:29;99766.53;;;5.99;80.19
56241;BME280;42155;53.096;23.226;2024-03-17T03:43:29;99761.44;;;5.96;80.27
56241;BME280;42155;53.096;23.226;2024-03-17T03:45:30;99762.31;;;5.96;80.48
56241;BME280;42155;53.096;23.226;2024-03-17T03:47:30;99755.59;;;5.91;80.43
56241;BME280;42155;53.096;23.226;2024-03-17T03:49:30;99743.06;;;5.67;79.80
56241;BME280;42155;53.096;23.226;2024-03-17T03:51:30;99758.75;;;5.83;80.37
56241;BME280;42155;53.096;23.226;2024-03-17T03:53:32;99734.88;;;5.72;79.98
56241;BME280;42155;53.096;23.226;2024-03-17T03:55:32;99766.44;;;5.86;80.16
56241;BME280;42155;53.096;23.226;2024-03-17T03:57:33;99776.13;;;5.85;79.67
56241;BME280;42155;53.096;23.226;2024-03-17T03:59:33;99765.81;;;5.82;80.06
56241;BME280;42155;53.096;23.226;2024-03-17T04:01:34;99754.81;;;5.76;79.86
56241;BME280;42155;53.096;23.226;2024-03-17T04:03:35;99749.09;;;5.69;79.11
56241;BME280;42155;53.096;23.226;2024-03-17T04:05:35;99763.75;;;5.73;79.11
56241;BME280;42155;53.096;23.226;2024-03-17T04:07:35;99754.09;;;5.59;79.43
56241;BME280;42155;53.096;23.226;2024-03-17T04:09:36;99764.25;;;5.66;79.40
56241;BME280;42155;53.096;23.226;2024-03-17T04:11:36;99759.38;;;5.59;78.98
56241;BME280;42155;53.096;23.226;2024-03-17T04:13:36;99778.53;;;5.61;78.79
56241;BME280;42155;53.096;23.226;2024-03-17T04:15:37;99781.34;;;5.58;78.84
56241;BME280;42155;53.096;23.226;2024-03-17T04:17:38;99775.94;;;5.47;78.72
56241;BME280;42155;53.096;23.226;2024-03-17T04:19:38;99756.41;;;5.37;79.26
56241;BME280;42155;53.096;23.226;2024-03-17T04:21:38;99783.72;;;5.49;78.98
56241;BME280;42155;53.096;23.226;2024-03-17T04:23:39;99780.41;;;5.45;78.58
56241;BME280;42155;53.096;23.226;2024-03-17T04:25:39;99762.22;;;5.28;78.91
56241;BME280;42155;53.096;23.226;2024-03-17T04:27:40;99793.97;;;5.39;78.81
56241;BME280;42155;53.096;23.226;2024-03-17T04:29:40;99784.84;;;5.30;79.09
56241;BME280;42155;53.096;23.226;2024-03-17T04:31:40;99774.81;;;5.23;78.51
56241;BME280;42155;53.096;23.226;2024-03-17T04:33:41;99784.19;;;5.27;78.51
56241;BME280;42155;53.096;23.226;2024-03-17T04:35:41;99782.50;;;5.26;78.79
56241;BME280;42155;53.096;23.226;2024-03-17T04:37:42;99791.53;;;5.22;78.76
56241;BME280;42155;53.096;23.226;2024-03-17T04:39:43;99795.19;;;5.19;78.34
56241;BME280;42155;53.096;23.226;2024-03-17T04:41:44;99791.06;;;5.15;78.91
56241;BME280;42155;53.096;23.226;2024-03-17T04:43:44;99793.13;;;5.10;78.24
56241;BME280;42155;53.096;23.226;2024-03-17T04:45:44;99797.72;;;5.06;79.09
56241;BME280;42155;53.096;23.226;2024-03-17T04:47:45;99816.31;;;5.03;79.15
56241;BME280;42155;53.096;23.226;2024-03-17T04:49:45;99763.50;;;4.78;78.89
56241;BME280;42155;53.096;23.226;2024-03-17T04:51:45;99801.84;;;4.96;78.70
56241;BME280;42155;53.096;23.226;2024-03-17T04:53:46;99767.97;;;4.62;78.78
56241;BME280;42155;53.096;23.226;2024-03-17T04:55:46;99808.50;;;4.88;78.42
56241;BME280;42155;53.096;23.226;2024-03-17T04:57:46;99820.91;;;4.85;78.62
56241;BME280;42155;53.096;23.226;2024-03-17T04:59:47;99820.41;;;4.79;78.95
56241;BME280;42155;53.096;23.226;2024-03-17T05:01:47;99819.09;;;4.72;78.87
56241;BME280;42155;53.096;23.226;2024-03-17T05:03:51;99822.47;;;4.74;78.85
56241;BME280;42155;53.096;23.226;2024-03-17T05:06:01;99820.78;;;4.73;78.96
56241;BME280;42155;53.096;23.226;2024-03-17T05:08:01;99814.16;;;4.66;78.53
56241;BME280;42155;53.096;23.226;2024-03-17T05:10:02;99829.66;;;4.70;78.75
56241;BME280;42155;53.096;23.226;2024-03-17T05:12:02;99826.97;;;4.72;78.12
56241;BME280;42155;53.096;23.226;2024-03-17T05:14:02;99833.91;;;4.73;77.94
56241;BME280;42155;53.096;23.226;2024-03-17T05:16:03;99833.97;;;4.71;77.77
56241;BME280;42155;53.096;23.226;2024-03-17T05:18:04;99827.88;;;4.71;78.32
56241;BME280;42155;53.096;23.226;2024-03-17T05:20:04;99826.38;;;4.67;77.73
56241;BME280;42155;53.096;23.226;2024-03-17T05:22:05;99835.19;;;4.66;77.69
56241;BME280;42155;53.096;23.226;2024-03-17T05:24:05;99833.50;;;4.65;77.56
56241;BME280;42155;53.096;23.226;2024-03-17T05:26:05;99791.38;;;4.36;77.98
56241;BME280;42155;53.096;23.226;2024-03-17T05:28:06;99836.41;;;4.60;77.53
56241;BME280;42155;53.096;23.226;2024-03-17T05:30:06;99841.66;;;4.60;77.38
56241;BME280;42155;53.096;23.226;2024-03-17T05:32:07;99838.50;;;4.69;77.07
56241;BME280;42155;53.096;23.226;2024-03-17T05:34:07;99830.88;;;4.65;77.26
56241;BME280;42155;53.096;23.226;2024-03-17T05:36:08;99838.06;;;4.77;77.03
56241;BME280;42155;53.096;23.226;2024-03-17T05:38:08;99843.63;;;4.87;77.13
56241;BME280;42155;53.096;23.226;2024-03-17T05:40:10;99833.25;;;5.14;76.44
56241;BME280;42155;53.096;23.226;2024-03-17T05:42:11;99845.47;;;5.72;75.17
56241;BME280;42155;53.096;23.226;2024-03-17T05:44:11;99831.75;;;5.67;73.77
56241;BME280;42155;53.096;23.226;2024-03-17T05:46:11;99843.78;;;5.56;74.48
56241;BME280;42155;53.096;23.226;2024-03-17T05:48:12;99843.59;;;5.31;74.09
56241;BME280;42155;53.096;23.226;2024-03-17T05:50:12;99823.84;;;5.09;74.08
56241;BME280;42155;53.096;23.226;2024-03-17T05:52:12;99853.38;;;5.72;73.87
56241;BME280;42155;53.096;23.226;2024-03-17T05:54:13;99847.44;;;6.38;72.24
56241;BME280;42155;53.096;23.226;2024-03-17T05:56:13;99847.69;;;8.50;68.08
56241;BME280;42155;53.096;23.226;2024-03-17T05:58:14;99831.66;;;11.08;62.64
56241;BME280;42155;53.096;23.226;2024-03-17T06:00:14;99829.19;;;13.54;56.79
56241;BME280;42155;53.096;23.226;2024-03-17T06:02:15;99783.63;;;15.35;52.46
56241;BME280;42155;53.096;23.226;2024-03-17T06:04:15;99810.38;;;17.11;48.93
56241;BME280;42155;53.096;23.226;2024-03-17T06:06:15;99806.69;;;18.15;46.59
56241;BME280;42155;53.096;23.226;2024-03-17T06:08:16;99762.84;;;18.46;44.64
56241;BME280;42155;53.096;23.226;2024-03-17T06:10:16;99804.03;;;17.68;45.45
56241;BME280;42155;53.096;23.226;2024-03-17T06:12:16;99813.69;;;17.05;46.27
56241;BME280;42155;53.096;23.226;2024-03-17T06:14:17;99811.34;;;16.69;46.68
56241;BME280;42155;53.096;23.226;2024-03-17T06:16:17;99816.19;;;15.91;47.06
56241;BME280;42155;53.096;23.226;2024-03-17T06:18:17;99811.81;;;16.57;46.56
56241;BME280;42155;53.096;23.226;2024-03-17T06:20:27;99797.56;;;16.40;46.20
56241;BME280;42155;53.096;23.226;2024-03-17T06:22:27;99809.16;;;17.22;43.92
56241;BME280;42155;53.096;23.226;2024-03-17T06:24:28;99798.53;;;17.53;43.35
56241;BME280;42155;53.096;23.226;2024-03-17T06:26:28;99782.53;;;19.07;40.81
56241;BME280;42155;53.096;23.226;2024-03-17T06:28:29;99780.41;;;20.57;38.97
56241;BME280;42155;53.096;23.226;2024-03-17T06:30:29;99784.47;;;21.52;37.40
56241;BME280;42155;53.096;23.226;2024-03-17T06:32:33;99766.47;;;21.59;37.33
56241;BME280;42155;53.096;23.226;2024-03-17T06:34:33;99790.94;;;21.29;36.89
56241;BME280;42155;53.096;23.226;2024-03-17T06:36:33;99783.91;;;19.70;38.96
56241;BME280;42155;53.096;23.226;2024-03-17T06:38:34;99797.94;;;18.21;40.18
56241;BME280;42155;53.096;23.226;2024-03-17T06:40:34;99798.63;;;17.04;41.94
56241;BME280;42155;53.096;23.226;2024-03-17T06:42:34;99801.84;;;16.08;43.08
56241;BME280;42155;53.096;23.226;2024-03-17T06:44:35;99804.47;;;15.32;44.20
56241;BME280;42155;53.096;23.226;2024-03-17T06:46:35;99774.59;;;14.48;45.75
56241;BME280;42155;53.096;23.226;2024-03-17T06:48:35;99802.72;;;14.43;46.20
56241;BME280;42155;53.096;23.226;2024-03-17T06:50:38;99802.47;;;14.18;46.33
56241;BME280;42155;53.096;23.226;2024-03-17T06:52:38;99803.09;;;13.85;46.71
56241;BME280;42155;53.096;23.226;2024-03-17T06:54:38;99781.69;;;13.30;46.76
56241;BME280;42155;53.096;23.226;2024-03-17T06:56:39;99806.16;;;12.96;47.80
56241;BME280;42155;53.096;23.226;2024-03-17T06:58:39;99804.06;;;12.51;48.63
56241;BME280;42155;53.096;23.226;2024-03-17T07:00:39;99804.88;;;12.13;49.33
56241;BME280;42155;53.096;23.226;2024-03-17T07:02:43;99814.50;;;11.94;49.25
56241;BME280;42155;53.096;23.226;2024-03-17T07:04:44;99808.94;;;11.77;49.47
56241;BME280;42155;53.096;23.226;2024-03-17T07:06:44;99818.22;;;11.52;49.51
56241;BME280;42155;53.096;23.226;2024-03-17T07:08:45;99814.44;;;11.24;50.34
56241;BME280;42155;53.096;23.226;2024-03-17T07:10:55;99827.03;;;11.01;51.00
56241;BME280;42155;53.096;23.226;2024-03-17T07:12:56;99802.22;;;10.58;52.13
56241;BME280;42155;53.096;23.226;2024-03-17T07:14:56;99840.13;;;10.60;51.89
56241;BME280;42155;53.096;23.226;2024-03-17T07:16:56;99827.16;;;10.46;52.81
56241;BME280;42155;53.096;23.226;2024-03-17T07:18:57;99829.84;;;10.24;52.91
56241;BME280;42155;53.096;23.226;2024-03-17T07:20:58;99838.66;;;10.13;52.79
56241;BME280;42155;53.096;23.226;2024-03-17T07:22:58;99826.75;;;9.96;53.46
56241;BME280;42155;53.096;23.226;2024-03-17T07:24:59;99834.72;;;9.85;53.87
56241;BME280;42155;53.096;23.226;2024-03-17T07:26:59;99835.91;;;9.69;53.80
56241;BME280;42155;53.096;23.226;2024-03-17T07:29:00;99816.44;;;9.48;53.81
56241;BME280;42155;53.096;23.226;2024-03-17T07:31:00;99844.56;;;9.38;54.43
56241;BME280;42155;53.096;23.226;2024-03-17T07:33:01;99845.03;;;9.21;54.71
56241;BME280;42155;53.096;23.226;2024-03-17T07:35:01;99832.31;;;8.90;55.29
56241;BME280;42155;53.096;23.226;2024-03-17T07:37:01;99831.97;;;8.84;55.67
56241;BME280;42155;53.096;23.226;2024-03-17T07:39:02;99795.75;;;8.49;56.54
56241;BME280;42155;53.096;23.226;2024-03-17T07:41:04;99764.94;;;8.37;56.45
56241;BME280;42155;53.096;23.226;2024-03-17T07:43:05;99816.00;;;8.61;56.66
56241;BME280;42155;53.096;23.226;2024-03-17T07:45:05;99835.16;;;8.76;57.00
56241;BME280;42155;53.096;23.226;2024-03-17T07:47:06;99832.41;;;8.78;56.95
56241;BME280;42155;53.096;23.226;2024-03-17T07:49:06;99840.34;;;8.78;56.97
56241;BME280;42155;53.096;23.226;2024-03-17T07:51:08;99824.31;;;8.68;57.03
56241;BME280;42155;53.096;23.226;2024-03-17T07:53:09;99843.91;;;8.65;56.66
56241;BME280;42155;53.096;23.226;2024-03-17T07:55:09;99840.78;;;8.60;57.06
56241;BME280;42155;53.096;23.226;2024-03-17T07:57:10;99834.44;;;8.50;57.22
56241;BME280;42155;53.096;23.226;2024-03-17T07:59:10;99852.47;;;8.45;58.04
56241;BME280;42155;53.096;23.226;2024-03-17T08:01:16;99845.63;;;8.30;57.31
56241;BME280;42155;53.096;23.226;2024-03-17T08:03:16;99846.63;;;8.16;57.84
56241;BME280;42155;53.096;23.226;2024-03-17T08:05:17;99836.94;;;8.04;58.58
56241;BME280;42155;53.096;23.226;2024-03-17T08:07:17;99844.34;;;7.99;58.07
56241;BME280;42155;53.096;23.226;2024-03-17T08:09:17;99850.06;;;7.93;58.89
56241;BME280;42155;53.096;23.226;2024-03-17T08:11:18;99839.31;;;7.83;58.80
56241;BME280;42155;53.096;23.226;2024-03-17T08:13:18;99844.41;;;7.86;58.44
56241;BME280;42155;53.096;23.226;2024-03-17T08:15:19;99840.78;;;7.87;58.67
56241;BME280;42155;53.096;23.226;2024-03-17T08:17:19;99848.59;;;7.88;58.92
56241;BME280;42155;53.096;23.226;2024-03-17T08:19:20;99841.00;;;7.84;58.95
56241;BME280;42155;53.096;23.226;2024-03-17T08:21:20;99845.78;;;7.79;59.02
56241;BME280;42155;53.096;23.226;2024-03-17T08:23:23;99834.81;;;7.72;59.55
56241;BME280;42155;53.096;23.226;2024-03-17T08:25:24;99852.00;;;7.78;59.66
56241;BME280;42155;53.096;23.226;2024-03-17T08:27:24;99852.22;;;7.75;59.10
56241;BME280;42155;53.096;23.226;2024-03-17T08:29:24;99835.75;;;7.71;59.41
56241;BME280;42155;53.096;23.226;2024-03-17T08:31:25;99853.31;;;7.72;59.09
56241;BME280;42155;53.096;23.226;2024-03-17T08:33:26;99864.91;;;7.70;59.25
56241;BME280;42155;53.096;23.226;2024-03-17T08:35:26;99852.44;;;7.72;59.51
56241;BME280;42155;53.096;23.226;2024-03-17T08:37:27;99850.97;;;7.68;59.82
56241;BME280;42155;53.096;23.226;2024-03-17T08:39:27;99850.34;;;7.77;59.50
56241;BME280;42155;53.096;23.226;2024-03-17T08:41:27;99848.63;;;7.76;60.01
56241;BME280;42155;53.096;23.226;2024-03-17T08:43:28;99852.75;;;7.80;59.69
56241;BME280;42155;53.096;23.226;2024-03-17T08:45:28;99814.09;;;7.53;60.05
56241;BME280;42155;53.096;23.226;2024-03-17T08:47:28;99850.09;;;7.80;59.45
56241;BME280;42155;53.096;23.226;2024-03-17T08:49:29;99852.75;;;7.80;59.78
56241;BME280;42155;53.096;23.226;2024-03-17T08:51:29;99856.97;;;7.82;59.76
56241;BME280;42155;53.096;23.226;2024-03-17T08:53:29;99855.19;;;7.83;59.74
56241;BME280;42155;53.096;23.226;2024-03-17T08:55:30;99852.09;;;7.89;59.85
56241;BME280;42155;53.096;23.226;2024-03-17T08:57:30;99845.66;;;7.80;59.55
56241;BME280;42155;53.096;23.226;2024-03-17T08:59:30;99858.53;;;7.98;59.27
56241;BME280;42155;53.096;23.226;2024-03-17T09:01:31;99854.97;;;7.86;59.30
56241;BME280;42155;53.096;23.226;2024-03-17T09:03:31;99862.56;;;7.90;60.20
56241;BME280;42155;53.096;23.226;2024-03-17T09:05:35;99845.66;;;7.80;59.97
56241;BME280;42155;53.096;23.226;2024-03-17T09:07:35;99862.97;;;7.84;60.29
56241;BME280;42155;53.096;23.226;2024-03-17T09:09:35;99855.81;;;7.74;60.21
56241;BME280;42155;53.096;23.226;2024-03-17T09:11:36;99877.34;;;7.80;59.87
56241;BME280;42155;53.096;23.226;2024-03-17T09:13:36;99846.31;;;7.71;59.83
56241;BME280;42155;53.096;23.226;2024-03-17T09:15:36;99859.63;;;7.70;60.46
56241;BME280;42155;53.096;23.226;2024-03-17T09:17:38;99852.44;;;7.72;60.76
56241;BME280;42155;53.096;23.226;2024-03-17T09:19:38;99857.31;;;7.78;60.64
56241;BME280;42155;53.096;23.226;2024-03-17T09:21:38;99853.50;;;7.82;61.13
56241;BME280;42155;53.096;23.226;2024-03-17T09:23:39;99847.75;;;7.88;60.48
56241;BME280;42155;53.096;23.226;2024-03-17T09:25:39;99837.50;;;7.96;60.90
56241;BME280;42155;53.096;23.226;2024-03-17T09:27:40;99822.81;;;7.92;60.49
56241;BME280;42155;53.096;23.226;2024-03-17T09:29:40;99835.88;;;8.06;60.81
56241;BME280;42155;53.096;23.226;2024-03-17T09:31:40;99844.09;;;8.14;60.35
56241;BME280;42155;53.096;23.226;2024-03-17T09:33:41;99847.25;;;8.20;60.46
56241;BME280;42155;53.096;23.226;2024-03-17T09:35:41;99840.38;;;8.17;60.31
56241;BME280;42155;53.096;23.226;2024-03-17T09:37:41;99820.06;;;8.17;60.32
56241;BME280;42155;53.096;23.226;2024-03-17T09:39:42;99823.50;;;8.31;60.13
56241;BME280;42155;53.096;23.226;2024-03-17T09:41:42;99826.34;;;8.40;59.88
56241;BME280;42155;53.096;23.226;2024-03-17T09:43:43;99837.28;;;8.60;59.75
56241;BME280;42155;53.096;23.226;2024-03-17T09:45:43;99840.31;;;8.66;59.85
56241;BME280;42155;53.096;23.226;2024-03-17T09:47:44;99830.56;;;8.67;60.08
56241;BME280;42155;53.096;23.226;2024-03-17T09:49:45;99823.03;;;8.50;59.95
56241;BME280;42155;53.096;23.226;2024-03-17T09:51:47;99830.25;;;8.48;59.54
56241;BME280;42155;53.096;23.226;2024-03-17T09:53:49;99837.25;;;8.36;59.78
56241;BME280;42155;53.096;23.226;2024-03-17T09:55:50;99827.16;;;8.17;59.93
56241;BME280;42155;53.096;23.226;2024-03-17T09:57:51;99835.75;;;8.08;60.46
56241;BME280;42155;53.096;23.226;2024-03-17T09:59:52;99827.00;;;7.95;60.53
56241;BME280;42155;53.096;23.226;2024-03-17T10:01:53;99842.47;;;7.88;60.42
56241;BME280;42155;53.096;23.226;2024-03-17T10:03:54;99831.19;;;7.86;60.80
56241;BME280;42155;53.096;23.226;2024-03-17T10:06:00;99835.94;;;7.81;60.90
56241;BME280;42155;53.096;23.226;2024-03-17T10:08:00;99831.59;;;7.80;60.92
56241;BME280;42155;53.096;23.226;2024-03-17T10:10:13;99847.25;;;7.83;61.28
56241;BME280;42155;53.096;23.226;2024-03-17T10:12:27;99828.97;;;7.80;60.94
56241;BME280;42155;53.096;23.226;2024-03-17T10:14:28;99832.13;;;7.85;61.23
56241;BME280;42155;53.096;23.226;2024-03-17T10:16:30;99833.84;;;7.86;60.81
56241;BME280;42155;53.096;23.226;2024-03-17T10:18:30;99830.94;;;7.89;61.16
56241;BME280;42155;53.096;23.226;2024-03-17T10:20:31;99818.38;;;7.93;61.27
56241;BME280;42155;53.096;23.226;2024-03-17T10:22:31;99829.63;;;8.07;60.98
56241;BME280;42155;53.096;23.226;2024-03-17T10:24:31;99828.59;;;8.10;60.69
56241;BME280;42155;53.096;23.226;2024-03-17T10:26:32;99837.56;;;8.07;60.70
56241;BME280;42155;53.096;23.226;2024-03-17T10:28:32;99822.03;;;8.03;61.26
56241;BME280;42155;53.096;23.226;2024-03-17T10:30:32;99768.03;;;7.57;61.01
56241;BME280;42155;53.096;23.226;2024-03-17T10:32:33;99790.31;;;7.66;61.01
56241;BME280;42155;53.096;23.226;2024-03-17T10:34:33;99813.13;;;7.80;61.33
56241;BME280;42155;53.096;23.226;2024-03-17T10:36:33;99823.47;;;7.83;61.85
56241;BME280;42155;53.096;23.226;2024-03-17T10:38:34;99801.13;;;7.63;62.39